sensor_id;sensor_type;location;lat;lon;timestamp;pressure;altitude;pressure_sealevel;temperature;humidity
31005;BME280;17676;52.254;4.490;2022-08-03T00:01:16;101387.97;;;21.25;100.00
31005;BME280;17676;52.254;4.490;2022-08-03T00:03:42;101380.22;;;21.17;100.00
31005;BME280;17676;52.254;4.490;2022-08-03T00:06:07;101381.34;;;21.21;100.00
31005;BME280;17676;52.254;4.490;2022-08-03T00:08:33;101389.69;;;21.31;100.00
31005;BME280;17676;52.254;4.490;2022-08-03T00:10:59;101380.28;;;21.27;100.00
31005;BME280;17676;52.254;4.490;2022-08-03T00:13:25;101373.66;;;21.23;100.00
31005;BME280;17676;52.254;4.490;2022-08-03T00:15:51;101381.94;;;21.28;100.00
31005;BME280;17676;52.254;4.490;2022-08-03T00:18:17;101375.84;;;21.21;100.00
31005;BME280;17676;52.254;4.490;2022-08-03T00:20:43;101368.16;;;21.23;100.00
31005;BME280;17676;52.254;4.490;2022-08-03T00:23:08;101371.69;;;21.19;100.00
31005;BME280;17676;52.254;4.490;2022-08-03T00:25:34;101372.22;;;21.16;100.00
31005;BME280;17676;52.254;4.490;2022-08-03T00:28:01;101362.00;;;21.11;100.00
31005;BME280;17676;52.254;4.490;2022-08-03T00:30:27;101375.81;;;21.16;100.00
31005;BME280;17676;52.254;4.490;2022-08-03T00:32:53;101363.06;;;21.05;100.00
31005;BME280;17676;52.254;4.490;2022-08-03T00:35:19;101366.63;;;21.01;100.00
31005;BME280;17676;52.254;4.490;2022-08-03T00:37:45;101343.72;;;20.95;100.00
31005;BME280;17676;52.254;4.490;2022-08-03T00:40:14;101361.66;;;21.03;100.00
31005;BME280;17676;52.254;4.490;2022-08-03T00:43:03;101356.16;;;21.03;100.00
31005;BME280;17676;52.254;4.490;2022-08-03T00:45:42;101355.91;;;21.09;100.00
31005;BME280;17676;52.254;4.490;2022-08-03T00:48:09;101361.94;;;21.06;100.00
31005;BME280;17676;52.254;4.490;2022-08-03T00:50:39;101357.28;;;21.07;100.00
31005;BME280;17676;52.254;4.490;2022-08-03T00:53:05;101353.97;;;21.05;100.00
31005;BME280;17676;52.254;4.490;2022-08-03T00:55:32;101348.69;;;20.98;100.00
31005;BME280;17676;52.254;4.490;2022-08-03T00:57:58;101358.34;;;21.01;100.00
31005;BME280;17676;52.254;4.490;2022-08-03T01:00:25;101347.09;;;21.07;100.00
31005;BME280;17676;52.254;4.490;2022-08-03T01:02:51;101352.78;;;20.96;100.00
31005;BME280;17676;52.254;4.490;2022-08-03T01:05:19;101349.69;;;20.87;100.00
31005;BME280;17676;52.254;4.490;2022-08-03T01:08:11;101342.19;;;20.83;100.00
31005;BME280;17676;52.254;4.490;2022-08-03T01:13:35;101337.00;;;20.86;100.00
31005;BME280;17676;52.254;4.490;2022-08-03T01:16:16;101337.91;;;20.92;100.00
31005;BME280;17676;52.254;4.490;2022-08-03T01:18:47;101337.09;;;20.91;100.00
31005;BME280;17676;52.254;4.490;2022-08-03T01:21:45;101341.22;;;20.94;100.00
31005;BME280;17676;52.254;4.490;2022-08-03T01:27:28;101332.03;;;20.83;100.00
31005;BME280;17676;52.254;4.490;2022-08-03T01:30:08;101335.59;;;20.84;100.00
31005;BME280;17676;52.254;4.490;2022-08-03T01:35:44;101320.97;;;20.78;100.00
31005;BME280;17676;52.254;4.490;2022-08-03T01:38:18;101333.22;;;20.92;100.00
31005;BME280;17676;52.254;4.490;2022-08-03T01:40:46;101330.34;;;20.82;100.00
31005;BME280;17676;52.254;4.490;2022-08-03T01:43:15;101329.22;;;20.78;100.00
31005;BME280;17676;52.254;4.490;2022-08-03T01:45:42;101335.81;;;20.77;100.00
31005;BME280;17676;52.254;4.490;2022-08-03T01:48:10;101332.53;;;20.75;100.00
31005;BME280;17676;52.254;4.490;2022-08-03T01:50:37;101318.69;;;20.70;100.00
31005;BME280;17676;52.254;4.490;2022-08-03T01:53:04;101332.81;;;20.79;100.00
31005;BME280;17676;52.254;4.490;2022-08-03T01:55:33;101326.19;;;20.75;100.00
31005;BME280;17676;52.254;4.490;2022-08-03T01:58:02;101329.22;;;20.78;100.00
31005;BME280;17676;52.254;4.490;2022-08-03T02:00:28;101331.16;;;20.78;100.00
31005;BME280;17676;52.254;4.490;2022-08-03T02:02:54;101321.53;;;20.75;100.00
31005;BME280;17676;52.254;4.490;2022-08-03T02:05:21;101315.19;;;20.75;100.00
31005;BME280;17676;52.254;4.490;2022-08-03T02:07:48;101321.13;;;20.62;100.00
31005;BME280;17676;52.254;4.490;2022-08-03T02:10:15;101324.44;;;20.64;100.00
31005;BME280;17676;52.254;4.490;2022-08-03T02:12:43;101316.16;;;20.59;100.00
31005;BME280;17676;52.254;4.490;2022-08-03T02:15:11;101311.16;;;20.56;100.00
31005;BME280;17676;52.254;4.490;2022-08-03T02:17:37;101320.81;;;20.58;100.00
31005;BME280;17676;52.254;4.490;2022-08-03T02:20:04;101312.00;;;20.56;100.00
31005;BME280;17676;52.254;4.490;2022-08-03T02:22:32;101304.28;;;20.58;100.00
31005;BME280;17676;52.254;4.490;2022-08-03T02:24:58;101316.19;;;20.64;100.00
31005;BME280;17676;52.254;4.490;2022-08-03T02:27:25;101301.53;;;20.58;100.00
31005;BME280;17676;52.254;4.490;2022-08-03T02:30:00;101315.91;;;20.65;100.00
31005;BME280;17676;52.254;4.490;2022-08-03T02:32:29;101304.00;;;20.55;100.00
31005;BME280;17676;52.254;4.490;2022-08-03T02:34:57;101307.00;;;20.53;100.00
31005;BME280;17676;52.254;4.490;2022-08-03T02:37:27;101311.16;;;20.56;100.00
31005;BME280;17676;52.254;4.490;2022-08-03T02:40:00;101315.53;;;20.52;100.00
31005;BME280;17676;52.254;4.490;2022-08-03T02:42:27;101309.44;;;20.45;100.00
31005;BME280;17676;52.254;4.490;2022-08-03T02:44:56;101306.91;;;20.38;100.00
31005;BME280;17676;52.254;4.490;2022-08-03T02:47:23;101318.38;;;20.30;100.00
31005;BME280;17676;52.254;4.490;2022-08-03T02:49:52;101298.56;;;20.28;100.00
31005;BME280;17676;52.254;4.490;2022-08-03T02:52:24;101304.03;;;20.28;100.00
31005;BME280;17676;52.254;4.490;2022-08-03T02:54:54;101296.91;;;20.27;100.00
31005;BME280;17676;52.254;4.490;2022-08-03T02:57:20;101293.81;;;20.24;100.00
31005;BME280;17676;52.254;4.490;2022-08-03T02:59:48;101307.84;;;20.22;100.00
31005;BME280;17676;52.254;4.490;2022-08-03T03:02:15;101304.53;;;20.20;100.00
31005;BME280;17676;52.254;4.490;2022-08-03T03:04:42;101301.56;;;20.27;100.00
31005;BME280;17676;52.254;4.490;2022-08-03T03:07:11;101301.03;;;20.30;100.00
31005;BME280;17676;52.254;4.490;2022-08-03T03:09:37;101296.06;;;20.27;100.00
31005;BME280;17676;52.254;4.490;2022-08-03T03:12:03;101293.56;;;20.25;100.00
31005;BME280;17676;52.254;4.490;2022-08-03T03:14:28;101291.69;;;20.31;100.00
31005;BME280;17676;52.254;4.490;2022-08-03T03:16:55;101298.81;;;20.27;100.00
31005;BME280;17676;52.254;4.490;2022-08-03T03:19:21;101301.03;;;20.30;100.00
31005;BME280;17676;52.254;4.490;2022-08-03T03:21:47;101300.19;;;20.29;100.00
31005;BME280;17676;52.254;4.490;2022-08-03T03:24:13;101294.16;;;20.27;100.00
31005;BME280;17676;52.254;4.490;2022-08-03T03:26:41;101298.25;;;20.25;100.00
31005;BME280;17676;52.254;4.490;2022-08-03T03:29:07;101294.28;;;20.16;100.00
31005;BME280;17676;52.254;4.490;2022-08-03T03:31:34;101288.78;;;20.16;100.00
31005;BME280;17676;52.254;4.490;2022-08-03T03:33:59;101299.06;;;20.25;100.00
31005;BME280;17676;52.254;4.490;2022-08-03T03:36:25;101291.81;;;20.14;100.00
31005;BME280;17676;52.254;4.490;2022-08-03T03:38:50;101303.97;;;20.18;100.00
31005;BME280;17676;52.254;4.490;2022-08-03T03:41:16;101297.84;;;20.11;100.00
31005;BME280;17676;52.254;4.490;2022-08-03T03:43:42;101303.63;;;20.15;100.00
31005;BME280;17676;52.254;4.490;2022-08-03T03:46:11;101299.50;;;20.12;100.00
31005;BME280;17676;52.254;4.490;2022-08-03T03:48:38;101299.63;;;20.01;100.00
31005;BME280;17676;52.254;4.490;2022-08-03T03:51:04;101312.06;;;20.08;100.00
31005;BME280;17676;52.254;4.490;2022-08-03T03:53:29;101311.00;;;20.09;100.00
31005;BME280;17676;52.254;4.490;2022-08-03T03:55:55;101309.25;;;20.03;100.00
31005;BME280;17676;52.254;4.490;2022-08-03T03:58:21;101315.84;;;20.02;100.00
31005;BME280;17676;52.254;4.490;2022-08-03T04:00:46;101306.53;;;20.03;100.00
31005;BME280;17676;52.254;4.490;2022-08-03T04:03:12;101305.16;;;20.06;100.00
31005;BME280;17676;52.254;4.490;2022-08-03T04:05:37;101309.81;;;20.05;100.00
31005;BME280;17676;52.254;4.490;2022-08-03T04:08:22;101304.31;;;20.05;100.00
31005;BME280;17676;52.254;4.490;2022-08-03T04:11:25;101298.00;;;20.05;100.00
31005;BME280;17676;52.254;4.490;2022-08-03T04:13:57;101308.69;;;20.01;100.00
31005;BME280;17676;52.254;4.490;2022-08-03T04:16:31;101316.88;;;19.96;100.00
31005;BME280;17676;52.254;4.490;2022-08-03T04:19:01;101311.88;;;19.93;100.00
31005;BME280;17676;52.254;4.490;2022-08-03T04:21:29;101320.59;;;19.85;100.00
31005;BME280;17676;52.254;4.490;2022-08-03T04:23:58;101323.63;;;19.84;100.00
31005;BME280;17676;52.254;4.490;2022-08-03T04:26:26;101327.22;;;19.89;100.00
31005;BME280;17676;52.254;4.490;2022-08-03T04:28:54;101310.75;;;19.89;100.00
31005;BME280;17676;52.254;4.490;2022-08-03T04:31:23;101325.03;;;19.86;100.00
31005;BME280;17676;52.254;4.490;2022-08-03T04:33:52;101324.13;;;19.81;100.00
31005;BME280;17676;52.254;4.490;2022-08-03T04:36:23;101317.78;;;19.80;100.00
31005;BME280;17676;52.254;4.490;2022-08-03T04:38:58;101312.81;;;19.77;100.00
31005;BME280;17676;52.254;4.490;2022-08-03T04:41:26;101333.56;;;19.90;100.00
31005;BME280;17676;52.254;4.490;2022-08-03T04:43:54;101326.72;;;19.92;100.00
31005;BME280;17676;52.254;4.490;2022-08-03T04:46:23;101323.41;;;19.90;100.00
31005;BME280;17676;52.254;4.490;2022-08-03T04:48:50;101330.06;;;19.94;100.00
31005;BME280;17676;52.254;4.490;2022-08-03T04:51:16;101341.06;;;19.94;100.00
31005;BME280;17676;52.254;4.490;2022-08-03T04:53:42;101337.25;;;20.00;100.00
31005;BME280;17676;52.254;4.490;2022-08-03T04:56:08;101343.66;;;20.06;100.00
31005;BME280;17676;52.254;4.490;2022-08-03T04:58:34;101335.97;;;20.08;100.00
31005;BME280;17676;52.254;4.490;2022-08-03T05:00:59;101337.97;;;20.12;100.00
31005;BME280;17676;52.254;4.490;2022-08-03T05:03:25;101337.72;;;20.14;100.00
31005;BME280;17676;52.254;4.490;2022-08-03T05:05:51;101342.91;;;20.10;100.00
31005;BME280;17676;52.254;4.490;2022-08-03T05:08:17;101341.81;;;20.11;100.00
31005;BME280;17676;52.254;4.490;2022-08-03T05:10:43;101339.63;;;20.13;100.00
31005;BME280;17676;52.254;4.490;2022-08-03T05:13:08;101333.63;;;20.16;100.00
31005;BME280;17676;52.254;4.490;2022-08-03T05:15:37;101337.25;;;20.22;100.00
31005;BME280;17676;52.254;4.490;2022-08-03T05:18:03;101338.41;;;20.26;100.00
31005;BME280;17676;52.254;4.490;2022-08-03T05:20:28;101336.81;;;20.35;100.00
31005;BME280;17676;52.254;4.490;2022-08-03T05:22:56;101338.81;;;20.39;100.00
31005;BME280;17676;52.254;4.490;2022-08-03T05:25:22;101332.25;;;20.45;100.00
31005;BME280;17676;52.254;4.490;2022-08-03T05:27:47;101344.00;;;20.67;100.00
31005;BME280;17676;52.254;4.490;2022-08-03T05:30:13;101344.56;;;20.69;100.00
31005;BME280;17676;52.254;4.490;2022-08-03T05:32:39;101342.41;;;20.71;100.00
31005;BME280;17676;52.254;4.490;2022-08-03T05:35:05;101344.56;;;20.69;100.00
31005;BME280;17676;52.254;4.490;2022-08-03T05:37:30;101336.34;;;20.74;100.00
31005;BME280;17676;52.254;4.490;2022-08-03T05:39:56;101352.25;;;20.94;100.00
31005;BME280;17676;52.254;4.490;2022-08-03T05:42:21;101352.88;;;21.06;100.00
31005;BME280;17676;52.254;4.490;2022-08-03T05:44:47;101340.81;;;21.17;100.00
31005;BME280;17676;52.254;4.490;2022-08-03T05:47:12;101340.63;;;21.28;100.00
31005;BME280;17676;52.254;4.490;2022-08-03T05:49:38;101343.16;;;21.35;100.00
31005;BME280;17676;52.254;4.490;2022-08-03T05:52:03;101341.19;;;21.30;100.00
31005;BME280;17676;52.254;4.490;2022-08-03T05:54:29;101333.16;;;21.24;100.00
31005;BME280;17676;52.254;4.490;2022-08-03T05:56:54;101334.13;;;21.49;100.00
31005;BME280;17676;52.254;4.490;2022-08-03T05:59:20;101338.50;;;21.45;100.00
31005;BME280;17676;52.254;4.490;2022-08-03T06:01:46;101324.25;;;21.58;100.00
31005;BME280;17676;52.254;4.490;2022-08-03T06:04:12;101328.22;;;21.77;100.00
31005;BME280;17676;52.254;4.490;2022-08-03T06:06:37;101340.34;;;21.76;100.00
31005;BME280;17676;52.254;4.490;2022-08-03T06:09:02;101327.97;;;21.79;100.00
31005;BME280;17676;52.254;4.490;2022-08-03T06:11:28;101333.50;;;21.89;100.00
31005;BME280;17676;52.254;4.490;2022-08-03T06:13:53;101333.22;;;21.90;100.00
31005;BME280;17676;52.254;4.490;2022-08-03T06:16:19;101328.84;;;21.99;100.00
31005;BME280;17676;52.254;4.490;2022-08-03T06:18:45;101328.81;;;21.94;100.00
31005;BME280;17676;52.254;4.490;2022-08-03T06:21:10;101328.88;;;22.14;100.00
31005;BME280;17676;52.254;4.490;2022-08-03T06:23:36;101329.72;;;22.10;100.00
31005;BME280;17676;52.254;4.490;2022-08-03T06:26:01;101342.69;;;22.24;100.00
31005;BME280;17676;52.254;4.490;2022-08-03T06:28:27;101342.16;;;22.42;100.00
31005;BME280;17676;52.254;4.490;2022-08-03T06:30:53;101340.78;;;22.40;100.00
31005;BME280;17676;52.254;4.490;2022-08-03T06:33:18;101339.47;;;22.57;100.00
31005;BME280;17676;52.254;4.490;2022-08-03T06:35:44;101335.06;;;22.76;100.00
31005;BME280;17676;52.254;4.490;2022-08-03T06:38:09;101341.34;;;23.17;100.00
31005;BME280;17676;52.254;4.490;2022-08-03T06:40:35;101350.91;;;23.65;100.00
31005;BME280;17676;52.254;4.490;2022-08-03T06:43:05;101349.38;;;24.89;100.00
31005;BME280;17676;52.254;4.490;2022-08-03T06:45:31;101340.19;;;25.93;100.00
31005;BME280;17676;52.254;4.490;2022-08-03T06:48:09;101346.03;;;26.52;100.00
31005;BME280;17676;52.254;4.490;2022-08-03T06:50:37;101338.38;;;26.94;100.00
31005;BME280;17676;52.254;4.490;2022-08-03T06:53:04;101339.06;;;26.17;100.00
31005;BME280;17676;52.254;4.490;2022-08-03T06:55:30;101336.47;;;26.02;100.00
31005;BME280;17676;52.254;4.490;2022-08-03T06:57:55;101346.66;;;26.07;100.00
31005;BME280;17676;52.254;4.490;2022-08-03T07:00:21;101342.72;;;26.13;100.00
31005;BME280;17676;52.254;4.490;2022-08-03T07:02:48;101348.09;;;25.81;100.00
31005;BME280;17676;52.254;4.490;2022-08-03T07:05:15;101347.16;;;25.67;100.00
31005;BME280;17676;52.254;4.490;2022-08-03T07:07:43;101356.22;;;24.97;100.00
31005;BME280;17676;52.254;4.490;2022-08-03T07:10:09;101357.28;;;25.01;100.00
31005;BME280;17676;52.254;4.490;2022-08-03T07:12:36;101373.13;;;25.29;100.00
31005;BME280;17676;52.254;4.490;2022-08-03T07:15:04;101375.56;;;25.59;100.00
31005;BME280;17676;52.254;4.490;2022-08-03T07:17:34;101373.53;;;26.11;100.00
31005;BME280;17676;52.254;4.490;2022-08-03T07:20:00;101374.31;;;27.36;100.00
31005;BME280;17676;52.254;4.490;2022-08-03T07:22:27;101387.97;;;28.06;100.00
31005;BME280;17676;52.254;4.490;2022-08-03T07:24:56;101397.28;;;28.01;100.00
31005;BME280;17676;52.254;4.490;2022-08-03T07:27:22;101407.94;;;28.21;100.00
31005;BME280;17676;52.254;4.490;2022-08-03T07:29:52;101395.78;;;27.63;100.00
31005;BME280;17676;52.254;4.490;2022-08-03T07:32:17;101408.66;;;27.59;100.00
31005;BME280;17676;52.254;4.490;2022-08-03T07:34:44;101400.66;;;26.75;100.00
31005;BME280;17676;52.254;4.490;2022-08-03T07:37:13;101406.09;;;26.24;100.00
31005;BME280;17676;52.254;4.490;2022-08-03T07:39:39;101404.31;;;25.39;100.00
31005;BME280;17676;52.254;4.490;2022-08-03T07:42:05;101407.31;;;24.81;100.00
31005;BME280;17676;52.254;4.490;2022-08-03T07:44:31;101395.47;;;24.27;100.00
31005;BME280;17676;52.254;4.490;2022-08-03T07:46:57;101409.34;;;24.22;100.00
31005;BME280;17676;52.254;4.490;2022-08-03T07:49:22;101410.88;;;24.38;100.00
31005;BME280;17676;52.254;4.490;2022-08-03T07:51:48;101404.69;;;24.12;100.00
31005;BME280;17676;52.254;4.490;2022-08-03T07:54:34;101403.34;;;24.00;100.00
31005;BME280;17676;52.254;4.490;2022-08-03T07:56:59;101406.38;;;24.95;100.00
31005;BME280;17676;52.254;4.490;2022-08-03T07:59:30;101404.69;;;25.33;100.00
31005;BME280;17676;52.254;4.490;2022-08-03T08:01:56;101393.75;;;25.93;100.00
31005;BME280;17676;52.254;4.490;2022-08-03T08:04:21;101399.69;;;25.30;100.00
31005;BME280;17676;52.254;4.490;2022-08-03T08:06:47;101406.91;;;25.26;100.00
31005;BME280;17676;52.254;4.490;2022-08-03T08:09:16;101412.75;;;24.96;100.00
31005;BME280;17676;52.254;4.490;2022-08-03T08:11:49;101397.06;;;25.15;100.00
31005;BME280;17676;52.254;4.490;2022-08-03T08:14:14;101401.88;;;25.85;100.00
31005;BME280;17676;52.254;4.490;2022-08-03T08:16:40;101410.03;;;26.79;100.00
31005;BME280;17676;52.254;4.490;2022-08-03T08:19:06;101406.03;;;27.22;100.00
31005;BME280;17676;52.254;4.490;2022-08-03T08:21:32;101413.91;;;26.22;100.00
31005;BME280;17676;52.254;4.490;2022-08-03T08:23:58;101412.50;;;26.25;100.00
31005;BME280;17676;52.254;4.490;2022-08-03T08:26:24;101416.25;;;26.34;100.00
31005;BME280;17676;52.254;4.490;2022-08-03T08:28:49;101420.69;;;26.53;100.00
31005;BME280;17676;52.254;4.490;2022-08-03T08:31:16;101414.78;;;26.97;100.00
31005;BME280;17676;52.254;4.490;2022-08-03T08:33:42;101407.69;;;27.04;100.00
31005;BME280;17676;52.254;4.490;2022-08-03T08:36:07;101425.09;;;27.28;100.00
31005;BME280;17676;52.254;4.490;2022-08-03T08:38:34;101420.91;;;27.44;100.00
31005;BME280;17676;52.254;4.490;2022-08-03T08:41:00;101419.47;;;27.47;100.00
31005;BME280;17676;52.254;4.490;2022-08-03T08:43:25;101433.81;;;28.62;100.00
31005;BME280;17676;52.254;4.490;2022-08-03T08:45:53;101426.34;;;28.93;100.00
31005;BME280;17676;52.254;4.490;2022-08-03T08:48:22;101431.06;;;29.81;100.00
31005;BME280;17676;52.254;4.490;2022-08-03T08:50:51;101412.63;;;29.71;100.00
31005;BME280;17676;52.254;4.490;2022-08-03T08:53:18;101430.50;;;30.09;100.00
31005;BME280;17676;52.254;4.490;2022-08-03T08:55:47;101428.06;;;30.72;100.00
31005;BME280;17676;52.254;4.490;2022-08-03T08:58:17;101425.91;;;30.86;100.00
31005;BME280;17676;52.254;4.490;2022-08-03T09:00:44;101434.75;;;31.39;100.00
31005;BME280;17676;52.254;4.490;2022-08-03T09:03:11;101429.50;;;31.29;100.00
31005;BME280;17676;52.254;4.490;2022-08-03T09:05:41;101427.50;;;31.38;100.00
31005;BME280;17676;52.254;4.490;2022-08-03T09:08:07;101420.78;;;31.31;100.00
31005;BME280;17676;52.254;4.490;2022-08-03T09:10:33;101435.28;;;32.17;95.54
31005;BME280;17676;52.254;4.490;2022-08-03T09:12:59;101442.16;;;31.35;97.20
31005;BME280;17676;52.254;4.490;2022-08-03T09:15:27;101435.78;;;31.09;98.87
31005;BME280;17676;52.254;4.490;2022-08-03T09:17:55;101440.53;;;31.43;99.68
31005;BME280;17676;52.254;4.490;2022-08-03T09:20:22;101447.38;;;32.09;94.77
31005;BME280;17676;52.254;4.490;2022-08-03T09:22:52;101445.34;;;32.18;93.00
31005;BME280;17676;52.254;4.490;2022-08-03T09:25:31;101456.38;;;32.52;91.99
31005;BME280;17676;52.254;4.490;2022-08-03T09:28:07;101429.97;;;32.53;90.50
31005;BME280;17676;52.254;4.490;2022-08-03T09:30:34;101449.56;;;32.03;90.61
31005;BME280;17676;52.254;4.490;2022-08-03T09:33:05;64387.28;;;-142.02;100.00
31005;BME280;17676;52.254;4.490;2022-08-03T09:35:30;64387.28;;;-142.02;100.00
31005;BME280;17676;52.254;4.490;2022-08-03T09:38:09;64387.28;;;-142.02;100.00
31005;BME280;17676;52.254;4.490;2022-08-03T09:40:35;64387.28;;;-142.02;100.00
31005;BME280;17676;52.254;4.490;2022-08-03T09:43:00;64387.28;;;-142.02;100.00
31005;BME280;17676;52.254;4.490;2022-08-03T09:45:26;64387.28;;;-142.02;100.00
31005;BME280;17676;52.254;4.490;2022-08-03T09:47:52;64387.28;;;-142.02;100.00
31005;BME280;17676;52.254;4.490;2022-08-03T09:50:18;64387.28;;;-142.02;100.00
31005;BME280;17676;52.254;4.490;2022-08-03T09:52:43;64387.28;;;-142.02;100.00
31005;BME280;17676;52.254;4.490;2022-08-03T09:55:13;64387.28;;;-142.02;100.00
31005;BME280;17676;52.254;4.490;2022-08-03T09:57:39;64387.28;;;-142.02;100.00
31005;BME280;17676;52.254;4.490;2022-08-03T10:00:10;64387.28;;;-142.02;100.00
31005;BME280;17676;52.254;4.490;2022-08-03T10:02:38;64387.28;;;-142.02;100.00
31005;BME280;17676;52.254;4.490;2022-08-03T10:05:05;64387.28;;;-142.02;100.00
31005;BME280;17676;52.254;4.490;2022-08-03T10:07:41;64387.28;;;-142.02;100.00
31005;BME280;17676;52.254;4.490;2022-08-03T10:10:08;64387.28;;;-142.02;100.00
31005;BME280;17676;52.254;4.490;2022-08-03T10:12:36;64387.28;;;-142.02;100.00
31005;BME280;17676;52.254;4.490;2022-08-03T10:15:04;64387.28;;;-142.02;100.00
31005;BME280;17676;52.254;4.490;2022-08-03T10:17:30;64387.28;;;-142.02;100.00
31005;BME280;17676;52.254;4.490;2022-08-03T10:19:55;64387.28;;;-142.02;100.00
31005;BME280;17676;52.254;4.490;2022-08-03T10:22:26;64387.28;;;-142.02;100.00
31005;BME280;17676;52.254;4.490;2022-08-03T10:27:22;64387.28;;;-142.02;100.00
31005;BME280;17676;52.254;4.490;2022-08-03T10:29:52;64387.28;;;-142.02;100.00
31005;BME280;17676;52.254;4.490;2022-08-03T10:35:15;64387.28;;;-142.02;100.00
31005;BME280;17676;52.254;4.490;2022-08-03T10:37:45;64387.28;;;-142.02;100.00
31005;BME280;17676;52.254;4.490;2022-08-03T10:40:14;64387.28;;;-142.02;100.00
31005;BME280;17676;52.254;4.490;2022-08-03T10:42:45;64387.28;;;-142.02;100.00
31005;BME280;17676;52.254;4.490;2022-08-03T10:45:17;64387.28;;;-142.02;100.00
31005;BME280;17676;52.254;4.490;2022-08-03T10:47:45;64387.28;;;-142.02;100.00
31005;BME280;17676;52.254;4.490;2022-08-03T10:50:11;64387.28;;;-142.02;100.00
31005;BME280;17676;52.254;4.490;2022-08-03T10:52:58;64387.28;;;-142.02;100.00
31005;BME280;17676;52.254;4.490;2022-08-03T10:55:37;64387.28;;;-142.02;100.00
31005;BME280;17676;52.254;4.490;2022-08-03T11:01:06;64387.28;;;-142.02;100.00
31005;BME280;17676;52.254;4.490;2022-08-03T11:03:32;64387.28;;;-142.02;100.00
31005;BME280;17676;52.254;4.490;2022-08-03T11:06:27;64387.28;;;-142.02;100.00
31005;BME280;17676;52.254;4.490;2022-08-03T11:11:38;64387.28;;;-142.02;100.00
31005;BME280;17676;52.254;4.490;2022-08-03T11:14:08;64387.28;;;-142.02;100.00
31005;BME280;17676;52.254;4.490;2022-08-03T11:16:42;64387.28;;;-142.02;100.00
31005;BME280;17676;52.254;4.490;2022-08-03T11:19:14;64387.28;;;-142.02;100.00
31005;BME280;17676;52.254;4.490;2022-08-03T11:30:05;64387.28;;;-142.02;100.00
31005;BME280;17676;52.254;4.490;2022-08-03T11:35:26;64387.28;;;-142.02;100.00
31005;BME280;17676;52.254;4.490;2022-08-03T11:40:38;64387.28;;;-142.02;100.00
31005;BME280;17676;52.254;4.490;2022-08-03T11:46:10;64387.28;;;-142.02;100.00
31005;BME280;17676;52.254;4.490;2022-08-03T11:48:43;64387.28;;;-142.02;100.00
31005;BME280;17676;52.254;4.490;2022-08-03T11:51:24;64387.28;;;-142.02;100.00
31005;BME280;17676;52.254;4.490;2022-08-03T11:54:03;64387.28;;;-142.02;100.00
31005;BME280;17676;52.254;4.490;2022-08-03T11:56:47;64387.28;;;-142.02;100.00
31005;BME280;17676;52.254;4.490;2022-08-03T11:59:14;64387.28;;;-142.02;100.00
31005;BME280;17676;52.254;4.490;2022-08-03T12:01:41;64387.28;;;-142.02;100.00
31005;BME280;17676;52.254;4.490;2022-08-03T12:04:17;64387.28;;;-142.02;100.00
31005;BME280;17676;52.254;4.490;2022-08-03T12:07:01;64387.28;;;-142.02;100.00
31005;BME280;17676;52.254;4.490;2022-08-03T12:09:27;64387.28;;;-142.02;100.00
31005;BME280;17676;52.254;4.490;2022-08-03T12:11:53;64387.28;;;-142.02;100.00
31005;BME280;17676;52.254;4.490;2022-08-03T12:14:19;64387.28;;;-142.02;100.00
31005;BME280;17676;52.254;4.490;2022-08-03T12:16:48;64387.28;;;-142.02;100.00
31005;BME280;17676;52.254;4.490;2022-08-03T12:19:14;64387.28;;;-142.02;100.00
31005;BME280;17676;52.254;4.490;2022-08-03T12:21:47;64387.28;;;-142.02;100.00
31005;BME280;17676;52.254;4.490;2022-08-03T12:24:14;64387.28;;;-142.02;100.00
31005;BME280;17676;52.254;4.490;2022-08-03T12:29:18;64387.28;;;-142.02;100.00
31005;BME280;17676;52.254;4.490;2022-08-03T12:31:44;64387.28;;;-142.02;100.00
31005;BME280;17676;52.254;4.490;2022-08-03T12:34:10;64387.28;;;-142.02;100.00
31005;BME280;17676;52.254;4.490;2022-08-03T12:36:36;64387.28;;;-142.02;100.00
31005;BME280;17676;52.254;4.490;2022-08-03T12:39:07;64387.28;;;-142.02;100.00
31005;BME280;17676;52.254;4.490;2022-08-03T12:41:35;64387.28;;;-142.02;100.00
31005;BME280;17676;52.254;4.490;2022-08-03T12:44:06;64387.28;;;-142.02;100.00
31005;BME280;17676;52.254;4.490;2022-08-03T12:46:37;64387.28;;;-142.02;100.00
31005;BME280;17676;52.254;4.490;2022-08-03T12:49:10;64387.28;;;-142.02;100.00
31005;BME280;17676;52.254;4.490;2022-08-03T12:51:55;64387.28;;;-142.02;100.00
31005;BME280;17676;52.254;4.490;2022-08-03T12:54:24;64387.28;;;-142.02;100.00
31005;BME280;17676;52.254;4.490;2022-08-03T12:57:06;64387.28;;;-142.02;100.00
31005;BME280;17676;52.254;4.490;2022-08-03T12:59:39;64387.28;;;-142.02;100.00
31005;BME280;17676;52.254;4.490;2022-08-03T13:02:21;64387.28;;;-142.02;100.00
31005;BME280;17676;52.254;4.490;2022-08-03T13:04:48;64387.28;;;-142.02;100.00
31005;BME280;17676;52.254;4.490;2022-08-03T13:07:15;64387.28;;;-142.02;100.00
31005;BME280;17676;52.254;4.490;2022-08-03T13:09:50;64387.28;;;-142.02;100.00
31005;BME280;17676;52.254;4.490;2022-08-03T13:12:19;64387.28;;;-142.02;100.00
31005;BME280;17676;52.254;4.490;2022-08-03T13:14:47;64387.28;;;-142.02;100.00
31005;BME280;17676;52.254;4.490;2022-08-03T13:17:13;64387.28;;;-142.02;100.00
31005;BME280;17676;52.254;4.490;2022-08-03T13:19:44;64387.28;;;-142.02;100.00
31005;BME280;17676;52.254;4.490;2022-08-03T13:24:37;64387.28;;;-142.02;100.00
31005;BME280;17676;52.254;4.490;2022-08-03T13:27:03;64387.28;;;-142.02;100.00